METAR Data
IDs: Format: Raw Decoded Include TAF

Data at: 0425 UTC 26 Sep 2018

KSDM 260353Z AUTO 00000KT 10SM CLR 18/15 A2994 RMK AO2 SLP133 T01780150
KSDM 260253Z 28005KT 10SM CLR 18/15 A2992 RMK AO2 SLP129 T01780150 53006
KSDM 260153Z 28004KT 10SM CLR 18/14 A2991 RMK AO2 SLP123 T01830144
KSDM 260053Z 28008KT 10SM CLR 20/15 A2991 RMK AO2 SLP123 T02000150
KSDM 252353Z AUTO 27009KT 10SM CLR 21/14 A2990 RMK AO2 SLP121 T02060144 10244 20200 56006
KSDM 252253Z 28009KT 10SM CLR 22/15 A2990 RMK AO2 SLP121 T02170150
KSDM 252153Z 29008G16KT 260V350 10SM CLR 22/16 A2991 RMK AO2 SLP124 T02220156
KSDM 252053Z 29010KT 10SM CLR 23/16 A2992 RMK AO2 SLP127 T02280156 58016
KSDM 251953Z COR 31005KT 10SM SCT020 23/16 A2994 RMK AO2 SLP133 T02330156
KSDM 251935Z VRB04KT 10SM SCT020 24/16 A2994 RMK AO2 T02390156
KSDM 251920Z VRB05KT 10SM BKN020 22/16 A2995 RMK AO2 T02220156
KSDM 251913Z 00000KT 10SM SCT020 22/16 A2995 RMK AO2 T02170156
KSDM 251853Z VRB06KT 10SM BKN020 22/16 A2995 RMK AO2 SLP138 T02220156
KSDM 251801Z 00000KT 10SM OVC017 20/15 A2996 RMK AO2 T02000150
KSDM 251753Z 30003KT 10SM OVC014 20/15 A2996 RMK AO2 SLP143 T02000150 10200 20172 51009
KSDM 251653Z 00000KT 9SM OVC010 19/16 A2996 RMK AO2 SLP142 T01890156
KSDM 251610Z 00000KT 9SM OVC011 18/16 A2995 RMK AO2 T01830156
KSDM 251553Z 00000KT 9SM OVC009 18/16 A2995 RMK AO2 CIG 007V012 SLP138 T01830156
KSDM 251453Z 00000KT 7SM OVC008 18/16 A2994 RMK AO2 SLP135 T01780156 53016
KSDM 251438Z AUTO 24003KT 7SM OVC009 17/15 A2993 RMK AO2 T01720150
KSDM 251353Z AUTO 22003KT 9SM OVC010 18/15 A2991 RMK AO2 SLP126 T01780150
KSDM 251346Z AUTO 00000KT 9SM OVC010 17/15 A2991 RMK AO2 T01720150
KSDM 251253Z AUTO 15003KT 9SM OVC009 18/15 A2990 RMK AO2 SLP121 T01780150
KSDM 251230Z AUTO 00000KT 9SM OVC009 18/15 A2990 RMK AO2 T01780150
KSDM 251153Z AUTO 00000KT 9SM OVC010 18/15 A2989 RMK AO2 SLP118 T01780150 10183 20167 55000
KSDM 251053Z AUTO 00000KT 10SM OVC010 18/15 A2988 RMK AO2 SLP115 T01780150
KSDM 250953Z AUTO 00000KT 10SM OVC011 18/15 A2989 RMK AO2 SLP117 T01830150
KSDM 250853Z AUTO 00000KT 10SM OVC012 18/15 A2989 RMK AO2 SLP119 T01780150 55001
KSDM 250753Z AUTO 00000KT 10SM OVC012 18/15 A2989 RMK AO2 SLP118 T01780150 402220167
KSDM 250653Z AUTO 00000KT 10SM BKN013 17/14 A2990 RMK AO2 SLP120 T01720144
KSDM 250553Z AUTO 27004KT 10SM OVC014 17/14 A2990 RMK AO2 SLP121 T01720139 10206 20167 50006
KSDM 250453Z AUTO 27003KT 10SM OVC014 18/14 A2990 RMK AO2 SLP121 T01780144
KSDM 250353Z AUTO 28003KT 10SM OVC016 18/14 A2989 RMK AO2 SLP119 T01780144
KSDM 250318Z AUTO VRB03KT 10SM OVC014 18/14 A2989 RMK AO2 T01780144
KSDM 250253Z 27004KT 10SM BKN015 17/14 A2988 RMK AO2 SLP115 T01670139 53006
KSDM 250153Z 28006KT 10SM CLR 17/13 A2987 RMK AO2 SLP110 T01720133
KSDM 250053Z COR 28006KT 10SM SCT015 19/14 A2986 RMK AO2 SLP108 T01890139
KSDM 242353Z COR 30007KT 10SM SCT020 20/14 A2986 RMK AO2 SLP107 T02000144 10222 20183 55009
KSDM 242253Z COR 26007KT 220V300 10SM SCT020 22/14 A2986 RMK AO2 SLP107 T02170144
KSDM 242153Z VRB06KT 10SM SCT018 22/14 A2987 RMK AO2 SLP110 T02170144
KSDM 242053Z 28005KT 10SM SCT018 21/15 A2989 RMK AO2 SLP116 T02110150 58013
KSDM 241953Z 32004KT 10SM OVC016 21/15 A2991 RMK AO2 SLP124 T02060150
KSDM 241920Z 29006KT 10SM OVC016 20/15 A2992 RMK AO2 T02000150
KSDM 241853Z 30004KT 10SM OVC014 19/15 A2992 RMK AO2 SLP128 T01940150
KSDM 241753Z 27004KT 10SM OVC013 18/14 A2993 RMK AO2 SLP130 T01830144 10183 20178 51009
KSDM 241653Z 30004KT 10SM OVC010 18/14 A2993 RMK AO2 SLP130 T01780144